Aérodrome :
LOGIN :

S'inscrire | Disclaimer

   EN    FR    IT 

 










Légende :    VFR   VFR Marginal   IFR   IFR Intensif   IFR Très Intensif
Visi : 
Plafond : 
>= 8 km
>= 3000ft
5 à 8 km
1000 à 3000 ft
1500m à 5 km
500 à 1000 ft
800 à 1500m
200 à 500 ft
< 800m
< 200 ft
Symboles :   Orages  Brouillard  Fortes neiges  Fortes précipitations  Vent > 20 kt
SIGMETs :   Divers  Orages  Givrage  Turbulence  Onde Orograph.  Cendres Volcan.







- Altitude de l'aérodrome : 1416 ft
- Code IATA : ZRH


LSZH - Zurich

DERNIER METAR :
  • 170920Z VRB02KT CAVOK 13/09 Q1020 NOSIG

METARs EXPIRÉS :
  • 170850Z VRB03KT 9000 NSC 11/08 Q1020 NOSIG
  • 170820Z VRB02KT 7000 NSC 10/08 Q1020 NOSIG
  • 170750Z VRB01KT 5000 NSC 08/07 Q1020 NOSIG
  • 170720Z 00000KT 4000 BR NSC 07/07 Q1020 BECMG 5000
  • 170650Z 28002KT 3500 0700N R14/P2000N R16/P2000N R28/P2000N R34/P2000N MIFG VCFG NSC 05/05 Q1020 BECMG 5000

TAF TAF LSZH
Valide du 17 à 09h jusqu'au 18 à 15h UTC


170825Z 1709/1815 VRB03KT 6000 NSC TX20/1714Z TN05/1805Z TX18/1803Z
BECMG 1709/1711 05006KT CAVOK
BECMG 1722/1801 VRB03KT 6000 MIFG NSC
BECMG 1801/1804 BKN008
BECMG 1807/1810 05008KT SCT012
BECMG 1811/1814 CAVOK
ATIS : +41 43 816 2295 (DEP) +41 43 816 2294 (ARR)
Pas de NOTAMs connus pour ce terrain.



MET'MAP, la Météo Aéronautique d'un coup d'oeil ! - Copyright ORBIFLY Décembre 2007 - Disclaimer

ORBIFLY MET'MAP TEAM :

Programmation & Développement : Alexandra Zaïnal
Conception & Développement : Baudouin d'Aumeries
Co-Programmation & Développement : Marc-Olivier Méhu
Soutien technique & logistique : Manuel Goepfert

Contact : metmap@orbifly.com




SOURCES & CREDITS :

   NOAA